Time;durP1;ratioP1;P1;durP2;ratioP2;P2;SDS_P1;SDS_P2;PMS_P1;PMS_P2;Temp;Humidity;BMP_temperature;BMP_pressure;BME280_temperature;BME280_humidity;BME280_pressure;Samples;Min_cycle;Max_cycle;Signal;HPM_P1;HPM_P2
2023/05/22 00:01:50;;;;;;;20.98;8.25;;;20.20;81.10;;;;;;7402190;19;20010;-71
2023/05/22 00:04:20;;;;;;;;;;;20.30;81.00;;;;;;7380847;19;20038;-71
2023/05/22 00:06:50;;;;;;;18.85;8.35;;;20.20;81.60;;;;;;7379880;19;19918;-72
2023/05/22 00:09:18;;;;;;;28.33;8.13;;;20.10;81.20;;;;;;7379739;19;20007;-70
2023/05/22 00:11:47;;;;;;;21.40;8.35;;;20.10;81.40;;;;;;7381387;19;20032;-71
2023/05/22 00:14:16;;;;;;;19.75;8.73;;;20.00;81.20;;;;;;7383714;19;20228;-70
2023/05/22 00:16:47;;;;;;;21.25;8.05;;;20.10;81.20;;;;;;7402861;19;20015;-70
2023/05/22 00:19:21;;;;;;;23.75;8.10;;;20.10;81.10;;;;;;7379753;19;20002;-71
2023/05/22 00:21:50;;;;;;;18.02;8.00;;;20.10;81.00;;;;;;7380032;19;20024;-70
2023/05/22 00:24:19;;;;;;;18.98;7.55;;;20.20;80.90;;;;;;7379801;19;20288;-70
2023/05/22 00:26:47;;;;;;;20.15;7.97;;;20.20;80.70;;;;;;7380255;19;19998;-70
2023/05/22 00:29:16;;;;;;;23.25;7.50;;;20.30;80.50;;;;;;7382681;19;20018;-70
2023/05/22 00:31:45;;;;;;;15.50;7.65;;;20.30;80.40;;;;;;7400423;19;20414;-70
2023/05/22 00:34:13;;;;;;;19.40;7.60;;;20.40;80.20;;;;;;7378029;19;20010;-71
2023/05/22 00:36:45;;;;;;;19.15;8.27;;;20.40;80.00;;;;;;7379104;19;20061;-70
2023/05/22 00:39:13;;;;;;;20.20;8.73;;;20.40;80.00;;;;;;7379104;19;20055;-71
2023/05/22 00:41:42;;;;;;;17.10;8.75;;;20.10;79.80;;;;;;7379614;19;20010;-70
2023/05/22 00:44:11;;;;;;;19.08;8.15;;;20.10;80.20;;;;;;7377876;19;20015;-70
2023/05/22 00:46:40;;;;;;;22.35;8.13;;;20.00;80.50;;;;;;7398280;19;20007;-70
2023/05/22 00:49:08;;;;;;;20.35;8.30;;;20.00;80.70;;;;;;7379087;19;20019;-70
2023/05/22 00:51:37;;;;;;;19.95;7.53;;;20.10;80.60;;;;;;7379513;19;20393;-70
2023/05/22 00:54:09;;;;;;;21.80;7.95;;;20.10;80.50;;;;;;7379503;19;20006;-70
2023/05/22 00:56:38;;;;;;;15.35;8.00;;;20.10;80.20;;;;;;7379565;19;20025;-71
2023/05/22 00:59:06;;;;;;;25.05;8.73;;;20.10;80.00;;;;;;7378743;19;20295;-69
2023/05/22 01:01:40;;;;;;;21.80;7.95;;;20.10;80.00;;;;;;7401436;19;20102;-69
2023/05/22 01:04:14;;;;;;;15.43;8.30;;;20.00;80.10;;;;;;7378271;19;20046;-70
2023/05/22 01:06:46;;;;;;;22.92;8.48;;;20.00;80.20;;;;;;7378041;19;20007;-70
2023/05/22 01:09:17;;;;;;;19.33;7.75;;;20.00;80.30;;;;;;7378276;19;20003;-70
2023/05/22 01:11:50;;;;;;;;;;;20.00;80.10;;;;;;7379646;19;20011;-70
2023/05/22 01:14:26;;;;;;;14.63;6.75;;;20.00;80.00;;;;;;7380594;19;19930;-71
2023/05/22 01:17:01;;;;;;;23.17;7.60;;;19.90;79.70;;;;;;7400604;19;20058;-70
2023/05/22 01:19:49;;;;;;;15.65;7.47;;;19.90;79.70;;;;;;7381190;19;19998;-70
2023/05/22 01:22:32;;;;;;;18.50;7.82;;;19.80;79.40;;;;;;7377844;19;20003;-70
2023/05/22 01:25:44;;;;;;;20.70;7.53;;;19.70;79.90;;;;;;7377745;19;20010;-70
2023/05/22 01:28:32;;;;;;;20.70;7.80;;;19.80;79.90;;;;;;7376600;19;20013;-70
2023/05/22 01:31:09;;;;;;;23.05;8.68;;;19.60;79.90;;;;;;7376911;19;20063;-71
2023/05/22 01:33:47;;;;;;;16.23;7.45;;;19.50;80.60;;;;;;7376381;19;20265;-71
2023/05/22 01:36:21;;;;;;;19.63;7.55;;;19.60;80.00;;;;;;7377210;19;20006;-70
2023/05/22 01:38:51;;;;;;;18.75;7.45;;;19.40;79.50;;;;;;7378003;19;20393;-71
2023/05/22 01:41:21;;;;;;;18.67;6.72;;;19.40;79.80;;;;;;7378347;19;22945;-71
2023/05/22 01:43:50;;;;;;;17.77;7.47;;;19.40;79.90;;;;;;7398699;19;20349;-70
2023/05/22 01:46:21;;;;;;;25.95;8.18;;;19.30;79.90;;;;;;7377150;19;20019;-70
2023/05/22 01:48:50;;;;;;;15.05;6.78;;;19.30;79.70;;;;;;7377376;19;20007;-70
2023/05/22 01:51:25;;;;;;;20.15;7.75;;;19.30;80.00;;;;;;7376641;19;20038;-70
2023/05/22 01:54:00;;;;;;;12.95;7.28;;;19.10;80.30;;;;;;7378197;19;20382;-70
2023/05/22 01:56:35;;;;;;;18.35;7.43;;;19.10;80.30;;;;;;7378870;19;20293;-71
2023/05/22 01:59:12;;;;;;;18.73;7.85;;;19.30;80.50;;;;;;7381888;19;20074;-70
2023/05/22 02:01:44;;;;;;;21.80;7.82;;;19.30;80.30;;;;;;7403258;19;20242;-70
2023/05/22 02:04:16;;;;;;;24.00;8.10;;;19.20;80.00;;;;;;7384067;19;20006;-70
2023/05/22 02:06:46;;;;;;;15.52;6.85;;;19.10;80.20;;;;;;7384511;19;20050;-70
2023/05/22 02:09:16;;;;;;;27.55;7.55;;;19.10;80.30;;;;;;7384395;19;20282;-70
2023/05/22 02:11:45;;;;;;;18.23;7.40;;;19.10;80.30;;;;;;7384613;19;20010;-70
2023/05/22 02:14:14;;;;;;;20.52;7.68;;;19.10;80.30;;;;;;7383915;19;20023;-70
2023/05/22 02:16:47;;;;;;;17.95;7.72;;;19.10;80.40;;;;;;7405761;19;20016;-70
2023/05/22 02:19:16;;;;;;;15.93;7.93;;;19.20;80.30;;;;;;7383956;19;20015;-70
2023/05/22 02:21:45;;;;;;;13.68;7.38;;;19.10;80.20;;;;;;7382910;19;20003;-70
2023/05/22 02:24:13;;;;;;;18.42;7.07;;;19.10;80.10;;;;;;7382846;19;20006;-71
2023/05/22 02:26:42;;;;;;;15.93;6.93;;;19.10;80.20;;;;;;7384037;19;20291;-69
2023/05/22 02:29:12;;;;;;;21.25;7.15;;;19.20;80.30;;;;;;7383982;19;20090;-70
2023/05/22 02:31:40;;;;;;;18.85;7.32;;;19.30;80.30;;;;;;7406285;19;20011;-70
2023/05/22 02:34:12;;;;;;;15.75;7.93;;;19.30;79.70;;;;;;7382713;19;20389;-70
2023/05/22 02:36:42;;;;;;;14.70;7.00;;;19.30;79.30;;;;;;7383694;19;20003;-70
2023/05/22 02:39:10;;;;;;;22.95;7.72;;;19.30;79.40;;;;;;7383812;19;20024;-71
2023/05/22 02:41:39;;;;;;;16.48;7.88;;;19.30;79.60;;;;;;7383869;19;20611;-71
2023/05/22 02:44:07;;;;;;;16.17;7.40;;;19.30;79.10;;;;;;7383869;19;20028;-71
2023/05/22 02:46:36;;;;;;;18.10;7.70;;;19.30;79.30;;;;;;7406710;19;20034;-71
2023/05/22 02:49:05;;;;;;;18.00;7.65;;;19.30;79.40;;;;;;7382511;19;20007;-71
2023/05/22 02:51:36;;;;;;;19.60;7.40;;;19.10;79.40;;;;;;7382928;19;20062;-71
2023/05/22 02:54:05;;;;;;;;;;;19.20;79.70;;;;;;7381964;19;20016;-70
2023/05/22 02:56:33;;;;;;;21.50;7.60;;;19.20;79.50;;;;;;7382743;19;19924;-70
2023/05/22 02:59:02;;;;;;;19.58;7.47;;;19.30;79.20;;;;;;7386151;19;20007;-71
2023/05/22 03:01:31;;;;;;;17.20;7.53;;;19.20;79.30;;;;;;7407423;19;20027;-71
2023/05/22 03:04:00;;;;;;;17.77;7.30;;;19.20;79.30;;;;;;7381962;19;19999;-70
2023/05/22 03:06:29;;;;;;;16.15;7.65;;;19.10;80.00;;;;;;7382067;19;20050;-70
2023/05/22 03:09:02;;;;;;;19.63;7.57;;;19.10;79.30;;;;;;7382001;19;20002;-70
2023/05/22 03:11:31;;;;;;;14.38;7.60;;;19.10;79.30;;;;;;7381680;19;20005;-70
2023/05/22 03:14:00;;;;;;;15.27;7.55;;;19.10;79.30;;;;;;7403881;19;20066;-70
2023/05/22 03:16:29;;;;;;;16.10;7.93;;;19.10;79.40;;;;;;7385498;19;20042;-70
2023/05/22 03:19:11;;;;;;;17.58;7.22;;;19.00;79.30;;;;;;7382125;19;20009;-71
2023/05/22 03:21:40;;;;;;;18.63;8.13;;;19.00;79.50;;;;;;7381149;19;20015;-70
2023/05/22 03:24:11;;;;;;;23.08;7.78;;;18.90;80.20;;;;;;7381280;19;20019;-70
2023/05/22 03:26:40;;;;;;;;;;;18.90;79.70;;;;;;7381760;19;20377;-70
2023/05/22 03:29:09;;;;;;;19.75;7.55;;;18.80;79.90;;;;;;7380614;19;19934;-70
2023/05/22 03:31:38;;;;;;;15.57;8.48;;;18.70;80.00;;;;;;7402095;19;20427;-71
2023/05/22 03:34:07;;;;;;;24.40;8.07;;;18.50;80.50;;;;;;7380689;19;20110;-70
2023/05/22 03:36:35;;;;;;;18.55;8.80;;;18.30;81.10;;;;;;7381664;19;20027;-70
2023/05/22 03:39:05;;;;;;;20.70;7.88;;;18.20;81.40;;;;;;7381435;19;20427;-70
2023/05/22 03:41:36;;;;;;;16.42;8.75;;;18.20;81.70;;;;;;7379707;19;20266;-71
2023/05/22 03:44:05;;;;;;;17.52;8.90;;;18.00;82.30;;;;;;7380726;19;20010;-70
2023/05/22 03:46:34;;;;;;;16.77;8.15;;;18.00;82.40;;;;;;7402283;19;20407;-70
2023/05/22 03:49:02;;;;;;;18.80;8.75;;;17.80;82.70;;;;;;7381410;19;20070;-70
2023/05/22 03:51:31;;;;;;;17.58;7.85;;;17.80;82.80;;;;;;7381580;19;20111;-70
2023/05/22 03:54:00;;;;;;;18.80;8.75;;;17.80;83.00;;;;;;7381259;19;20021;-70
2023/05/22 03:56:28;;;;;;;20.15;7.68;;;17.70;83.10;;;;;;7381172;19;20019;-69
2023/05/22 03:58:59;;;;;;;20.83;8.70;;;17.70;83.30;;;;;;7400966;19;20027;-70
2023/05/22 04:01:28;;;;;;;20.25;7.53;;;17.70;83.10;;;;;;7380768;19;20007;-71
2023/05/22 04:03:57;;;;;;;15.27;7.55;;;17.80;83.10;;;;;;7380302;19;20545;-71
2023/05/22 04:06:26;;;;;;;18.17;7.43;;;17.90;82.90;;;;;;7380542;19;20228;-70
2023/05/22 04:08:54;;;;;;;18.95;8.00;;;18.00;82.70;;;;;;7381617;19;20058;-69
2023/05/22 04:11:23;;;;;;;14.20;8.13;;;18.10;82.60;;;;;;7380473;19;20295;-70
2023/05/22 04:13:52;;;;;;;16.52;7.75;;;18.10;82.50;;;;;;7401790;19;20047;-70
2023/05/22 04:16:23;;;;;;;22.42;8.02;;;18.30;82.60;;;;;;7378962;19;20002;-71
2023/05/22 04:18:52;;;;;;;15.48;7.78;;;18.30;82.10;;;;;;7381458;19;20024;-71
2023/05/22 04:21:22;;;;;;;19.98;7.88;;;18.30;81.70;;;;;;7379076;19;20082;-71
2023/05/22 04:23:51;;;;;;;22.60;8.43;;;18.40;81.70;;;;;;7381621;19;20007;-70
2023/05/22 04:26:19;;;;;;;19.02;8.40;;;18.20;81.60;;;;;;7381105;19;20397;-70
2023/05/22 04:28:48;;;;;;;19.42;8.63;;;18.20;82.00;;;;;;7400727;19;20362;-71
2023/05/22 04:31:17;;;;;;;19.60;8.15;;;18.30;82.10;;;;;;7378830;19;20274;-69
2023/05/22 04:33:48;;;;;;;22.58;8.77;;;18.30;81.90;;;;;;7380445;19;20002;-70
2023/05/22 04:36:21;;;;;;;;;;;18.20;81.90;;;;;;7380396;19;20021;-70
2023/05/22 04:38:49;;;;;;;23.38;8.05;;;18.20;82.20;;;;;;7379741;19;19910;-71
2023/05/22 04:41:21;;;;;;;22.77;8.98;;;18.20;82.20;;;;;;7379850;19;20031;-70
2023/05/22 04:43:51;;;;;;;;;;;18.30;82.10;;;;;;7405003;19;20017;-70
2023/05/22 04:46:21;;;;;;;19.52;8.18;;;18.30;82.10;;;;;;7379120;19;20183;-71
2023/05/22 04:48:52;;;;;;;19.33;7.97;;;18.40;82.00;;;;;;7380207;19;19999;-70
2023/05/22 04:51:21;;;;;;;22.67;8.15;;;18.40;82.00;;;;;;7380515;19;20390;-70
2023/05/22 04:53:51;;;;;;;15.07;7.93;;;18.50;81.60;;;;;;7379084;19;20070;-70
2023/05/22 04:56:20;;;;;;;20.80;8.60;;;18.50;81.70;;;;;;7380374;19;20034;-70
2023/05/22 04:58:48;;;;;;;19.00;8.43;;;18.40;81.90;;;;;;7401343;19;20323;-70
2023/05/22 05:01:18;;;;;;;19.38;7.65;;;18.40;81.70;;;;;;7379275;19;20002;-71
2023/05/22 05:03:47;;;;;;;24.42;7.95;;;18.50;81.90;;;;;;7378631;19;20476;-70
2023/05/22 05:06:20;;;;;;;17.52;8.07;;;18.50;82.00;;;;;;7379132;19;20011;-71
2023/05/22 05:08:49;;;;;;;26.23;9.43;;;18.50;81.90;;;;;;7379391;19;20062;-71
2023/05/22 05:11:17;;;;;;;22.83;8.52;;;18.60;81.80;;;;;;7378710;19;20010;-71
2023/05/22 05:13:46;;;;;;;22.52;9.02;;;18.60;81.70;;;;;;7398471;19;20066;-71
2023/05/22 05:16:15;;;;;;;18.02;8.25;;;18.70;81.60;;;;;;7376426;19;20293;-71
2023/05/22 05:18:43;;;;;;;19.85;8.05;;;18.60;81.60;;;;;;7378473;19;20007;-71
2023/05/22 05:21:12;;;;;;;19.38;7.88;;;18.60;81.70;;;;;;7378435;19;20046;-71
2023/05/22 05:23:43;;;;;;;21.13;8.23;;;18.50;81.80;;;;;;7378194;19;20370;-70
2023/05/22 05:26:12;;;;;;;21.95;8.88;;;18.50;82.10;;;;;;7378472;19;20010;-70
2023/05/22 05:28:41;;;;;;;18.52;8.07;;;18.30;82.30;;;;;;7399751;19;20070;-71
2023/05/22 05:31:09;;;;;;;17.85;8.80;;;18.30;82.70;;;;;;7377087;19;20024;-71
2023/05/22 05:33:38;;;;;;;14.90;7.95;;;18.30;83.00;;;;;;7383394;19;20003;-70
2023/05/22 05:36:07;;;;;;;19.30;8.23;;;18.30;82.90;;;;;;7385039;19;20010;-70
2023/05/22 05:38:36;;;;;;;16.25;7.30;;;18.30;83.00;;;;;;7383393;19;20006;-70
2023/05/22 05:41:07;;;;;;;17.27;8.13;;;18.20;83.30;;;;;;7385689;19;20027;-70
2023/05/22 05:43:36;;;;;;;17.58;7.72;;;18.20;83.50;;;;;;7406554;19;20010;-70
2023/05/22 05:46:05;;;;;;;18.88;8.52;;;18.20;83.50;;;;;;7384871;19;20062;-70
2023/05/22 05:48:33;;;;;;;19.48;8.05;;;18.10;83.30;;;;;;7386489;19;20062;-70
2023/05/22 05:51:02;;;;;;;20.58;9.02;;;18.10;83.50;;;;;;7388717;19;20013;-70
2023/05/22 05:53:31;;;;;;;17.83;8.52;;;18.10;84.80;;;;;;7383238;19;20058;-71
2023/05/22 05:56:00;;;;;;;15.15;8.15;;;18.10;84.00;;;;;;7405309;19;20022;-70
2023/05/22 05:58:31;;;;;;;19.65;8.77;;;18.10;84.20;;;;;;7384097;19;20014;-70
2023/05/22 06:01:00;;;;;;;;;;;18.20;84.20;;;;;;7384856;19;20011;-70
2023/05/22 06:03:29;;;;;;;52.95;10.35;;;18.30;84.00;;;;;;7383083;19;19903;-70
2023/05/22 06:05:59;;;;;;;21.58;8.23;;;18.30;83.90;;;;;;7384271;19;20002;-70
2023/05/22 06:08:27;;;;;;;21.45;8.23;;;18.50;83.80;;;;;;7384080;19;20013;-70
2023/05/22 06:10:56;;;;;;;17.45;7.05;;;18.50;83.40;;;;;;7403176;19;20014;-70
2023/05/22 06:13:25;;;;;;;23.08;7.68;;;18.70;83.40;;;;;;7383709;19;20020;-69
2023/05/22 06:15:56;;;;;;;23.70;9.30;;;18.80;83.00;;;;;;7381532;19;20064;-70
2023/05/22 06:18:25;;;;;;;;;;;18.50;82.50;;;;;;7384499;19;20170;-69
2023/05/22 06:20:53;;;;;;;26.13;8.60;;;18.70;83.20;;;;;;7383762;19;19928;-70
2023/05/22 06:23:22;;;;;;;19.15;7.97;;;18.50;83.10;;;;;;7383383;19;20845;-69
2023/05/22 06:25:51;;;;;;;31.50;9.43;;;18.50;83.10;;;;;;7405468;19;20062;-69
2023/05/22 06:28:19;;;;;;;30.75;8.75;;;18.60;83.50;;;;;;7382807;19;20007;-70
2023/05/22 06:30:48;;;;;;;19.30;8.75;;;18.70;82.60;;;;;;7382268;19;20059;-70
2023/05/22 06:33:19;;;;;;;31.77;9.30;;;18.60;83.50;;;;;;7383157;19;20361;-70
2023/05/22 06:35:48;;;;;;;36.15;9.30;;;18.70;82.90;;;;;;7383993;19;20094;-70
2023/05/22 06:38:17;;;;;;;23.05;8.10;;;18.70;82.80;;;;;;7383810;19;20074;-70
2023/05/22 06:40:45;;;;;;;20.10;9.18;;;18.80;82.70;;;;;;7404854;19;20011;-70
2023/05/22 06:43:14;;;;;;;22.90;8.75;;;18.70;82.60;;;;;;7381068;19;20244;-70
2023/05/22 06:45:43;;;;;;;25.55;9.15;;;18.60;82.50;;;;;;7383230;19;20058;-70
2023/05/22 06:48:12;;;;;;;22.58;9.00;;;18.80;82.90;;;;;;7383208;19;20020;-70
2023/05/22 06:50:43;;;;;;;18.48;8.00;;;18.90;83.80;;;;;;7381219;19;20014;-70
2023/05/22 06:53:12;;;;;;;;;;;19.10;82.80;;;;;;7381105;19;20007;-70
2023/05/22 06:55:41;;;;;;;14.55;7.30;;;19.40;82.30;;;;;;7403425;19;19918;-70
2023/05/22 06:58:10;;;;;;;19.15;8.63;;;19.50;81.70;;;;;;7382161;19;20007;-70
2023/05/22 07:00:38;;;;;;;21.33;8.05;;;19.40;81.20;;;;;;7382251;19;20428;-70
2023/05/22 07:03:07;;;;;;;24.45;8.73;;;19.40;81.20;;;;;;7381094;19;20028;-70
2023/05/22 07:05:36;;;;;;;21.92;8.95;;;19.60;81.10;;;;;;7382474;19;20211;-70
2023/05/22 07:08:07;;;;;;;20.45;7.88;;;19.80;81.00;;;;;;7382185;19;20027;-70
2023/05/22 07:10:36;;;;;;;;;;;19.80;80.60;;;;;;7404599;19;20018;-70
2023/05/22 07:13:05;;;;;;;19.10;8.30;;;20.00;80.40;;;;;;7381238;19;19907;-70
2023/05/22 07:15:33;;;;;;;20.15;8.50;;;20.00;80.20;;;;;;7382046;19;20392;-70
2023/05/22 07:18:02;;;;;;;26.48;9.68;;;19.90;80.10;;;;;;7380906;19;20027;-70
2023/05/22 07:20:31;;;;;;;18.52;9.60;;;19.80;80.20;;;;;;7379753;19;20016;-70
2023/05/22 07:22:59;;;;;;;25.70;9.52;;;19.80;80.50;;;;;;7401396;19;20278;-70
2023/05/22 07:25:31;;;;;;;24.58;8.73;;;19.60;80.60;;;;;;7381240;19;20054;-70
2023/05/22 07:28:00;;;;;;;;;;;19.50;81.20;;;;;;7381579;19;19999;-70
2023/05/22 07:30:29;;;;;;;21.33;9.40;;;19.60;81.50;;;;;;7380968;19;20002;-70
2023/05/22 07:32:58;;;;;;;21.05;8.93;;;19.60;81.20;;;;;;7380045;19;20032;-70
2023/05/22 07:35:27;;;;;;;21.08;9.98;;;19.50;81.40;;;;;;7381028;19;20361;-70
2023/05/22 07:37:55;;;;;;;26.15;9.68;;;19.50;81.50;;;;;;7403103;19;20335;-70
2023/05/22 07:40:24;;;;;;;22.63;8.40;;;19.40;81.70;;;;;;7381584;19;20070;-70
2023/05/22 07:42:55;;;;;;;24.55;9.48;;;19.60;82.10;;;;;;7384086;19;20067;-70
2023/05/22 07:45:25;;;;;;;20.98;8.95;;;19.40;81.80;;;;;;7378584;19;20334;-70
2023/05/22 07:47:54;;;;;;;18.13;8.35;;;19.40;82.20;;;;;;7379524;19;20066;-70
2023/05/22 07:50:25;;;;;;;24.00;9.15;;;19.50;82.10;;;;;;7383529;19;20042;-70
2023/05/22 07:52:54;;;;;;;25.13;8.93;;;19.60;81.90;;;;;;7400413;19;20300;-70
2023/05/22 07:55:22;;;;;;;21.48;9.10;;;19.70;82.30;;;;;;7377677;19;20013;-70
2023/05/22 07:57:51;;;;;;;21.50;8.82;;;19.50;81.60;;;;;;7380451;19;20070;-70
2023/05/22 08:00:24;;;;;;;25.88;8.77;;;19.80;82.00;;;;;;7380522;19;20020;-70
2023/05/22 08:02:53;;;;;;;28.20;9.68;;;19.70;81.90;;;;;;7380755;19;20002;-70
2023/05/22 08:05:21;;;;;;;16.10;8.30;;;19.80;82.00;;;;;;7379296;19;20128;-70
2023/05/22 08:07:50;;;;;;;21.60;8.27;;;19.80;81.50;;;;;;7403959;19;20019;-70
2023/05/22 08:10:20;;;;;;;18.33;8.65;;;19.90;81.90;;;;;;7379749;19;20010;-70
2023/05/22 08:12:48;;;;;;;24.45;9.07;;;20.00;81.70;;;;;;7380090;19;20070;-70
2023/05/22 08:15:17;;;;;;;32.40;10.05;;;20.10;81.60;;;;;;7380358;19;20030;-70
2023/05/22 08:17:48;;;;;;;19.52;9.63;;;19.90;81.90;;;;;;7379583;19;20011;-70
2023/05/22 08:20:17;;;;;;;;;;;20.00;82.00;;;;;;7379070;19;20023;-70
2023/05/22 08:22:46;;;;;;;25.95;9.63;;;20.00;81.40;;;;;;7399655;19;19919;-70
2023/05/22 08:25:14;;;;;;;18.17;8.73;;;19.90;81.90;;;;;;7379259;19;20007;-70
2023/05/22 08:27:43;;;;;;;51.85;10.10;;;19.80;82.00;;;;;;7378892;19;20006;-70
2023/05/22 08:30:12;;;;;;;32.17;8.82;;;19.90;82.30;;;;;;7378643;19;20006;-70
2023/05/22 08:32:41;;;;;;;34.90;9.75;;;20.00;82.00;;;;;;7378552;19;20058;-70
2023/05/22 08:35:13;;;;;;;23.80;10.25;;;20.20;82.20;;;;;;7379310;19;20011;-70
2023/05/22 08:37:41;;;;;;;18.13;8.82;;;20.30;81.70;;;;;;7401770;19;20009;-70
2023/05/22 08:40:13;;;;;;;24.30;10.07;;;20.30;81.50;;;;;;7378978;19;19999;-70
2023/05/22 08:42:42;;;;;;;23.25;8.25;;;20.40;81.10;;;;;;7378947;19;20013;-70
2023/05/22 08:45:14;;;;;;;16.20;8.63;;;20.50;82.00;;;;;;7378627;19;20062;-70
2023/05/22 08:47:45;;;;;;;28.63;9.95;;;20.50;81.20;;;;;;7378446;19;20013;-70
2023/05/22 08:50:18;;;;;;;23.40;9.15;;;20.50;81.20;;;;;;7379588;19;20010;-70
2023/05/22 08:52:51;;;;;;;21.63;9.57;;;20.40;81.20;;;;;;7400736;19;20017;-70
2023/05/22 08:55:21;;;;;;;24.60;9.20;;;20.40;81.30;;;;;;7378395;19;20002;-70
2023/05/22 08:57:51;;;;;;;27.48;9.48;;;20.50;81.90;;;;;;7380105;19;20036;-70
2023/05/22 09:00:21;;;;;;;24.10;8.85;;;20.50;81.50;;;;;;7378526;19;20002;-70
2023/05/22 09:02:51;;;;;;;22.95;9.32;;;20.50;81.70;;;;;;7378027;19;20271;-70
2023/05/22 09:05:25;;;;;;;22.63;9.73;;;20.40;81.80;;;;;;7378659;19;19999;-70
2023/05/22 09:07:55;;;;;;;22.60;9.73;;;20.40;81.90;;;;;;7398905;19;20014;-70
2023/05/22 09:10:24;;;;;;;22.80;10.82;;;20.30;82.30;;;;;;7377791;19;20016;-70
2023/05/22 09:13:02;;;;;;;30.90;11.68;;;20.20;82.30;;;;;;7377897;19;20006;-70
2023/05/22 09:15:31;;;;;;;36.28;11.90;;;20.30;82.30;;;;;;7377762;19;19999;-70
2023/05/22 09:18:00;;;;;;;23.60;9.73;;;20.50;82.00;;;;;;7378929;19;20007;-70
2023/05/22 09:20:32;;;;;;;27.13;10.23;;;20.50;81.80;;;;;;7376869;19;20003;-69
2023/05/22 09:23:01;;;;;;;28.85;10.95;;;20.50;81.60;;;;;;7398191;19;20011;-70
2023/05/22 09:25:30;;;;;;;24.55;10.95;;;20.70;81.40;;;;;;7399602;19;20003;-70
2023/05/22 09:27:59;;;;;;;42.85;11.20;;;20.40;82.20;;;;;;7376856;19;20003;-70
2023/05/22 09:30:27;;;;;;;29.75;11.13;;;20.40;82.90;;;;;;7377679;19;20296;-70
2023/05/22 09:32:57;;;;;;;29.20;10.00;;;20.60;82.20;;;;;;7379131;19;20047;-70
2023/05/22 09:35:28;;;;;;;24.13;11.20;;;20.80;82.20;;;;;;7379061;19;20050;-69
2023/05/22 09:38:00;;;;;;;33.88;10.55;;;20.80;81.80;;;;;;7398883;19;20010;-70
2023/05/22 09:40:33;;;;;;;21.55;10.07;;;21.00;82.40;;;;;;7379039;19;20010;-70
2023/05/22 09:43:02;;;;;;;26.08;10.65;;;20.80;81.50;;;;;;7377516;19;20379;-70
2023/05/22 09:45:31;;;;;;;22.38;9.77;;;20.90;81.30;;;;;;7376849;19;20071;-70
2023/05/22 09:48:00;;;;;;;23.27;10.15;;;21.10;81.30;;;;;;7377115;19;20019;-70
2023/05/22 09:50:29;;;;;;;23.63;10.00;;;21.20;81.20;;;;;;7378229;19;20066;-69
2023/05/22 09:53:03;;;;;;;27.80;11.05;;;21.40;81.30;;;;;;7396876;19;20074;-70
2023/05/22 09:55:33;;;;;;;29.23;10.63;;;21.50;80.60;;;;;;7376987;19;20003;-69
2023/05/22 09:58:05;;;;;;;31.88;13.13;;;21.60;80.50;;;;;;7376571;19;20007;-69
2023/05/22 10:00:36;;;;;;;26.00;11.35;;;21.60;79.50;;;;;;7377169;19;20006;-70
2023/05/22 10:03:10;;;;;;;28.45;12.75;;;21.80;79.80;;;;;;7376297;19;20016;-70
2023/05/22 10:05:42;;;;;;;21.75;10.45;;;21.70;80.40;;;;;;7376247;19;20026;-70
2023/05/22 10:08:21;;;;;;;21.83;11.32;;;22.00;80.30;;;;;;7375445;19;20003;-70
2023/05/22 10:10:52;;;;;;;23.38;9.43;;;21.90;79.40;;;;;;7399389;19;20011;-70
2023/05/22 10:13:22;;;;;;;26.50;10.73;;;22.00;79.70;;;;;;7377443;19;20007;-70
2023/05/22 10:15:51;;;;;;;28.33;10.35;;;21.90;79.50;;;;;;7375853;19;20010;-70
2023/05/22 10:18:20;;;;;;;25.58;10.85;;;22.00;79.70;;;;;;7378591;19;20006;-71
2023/05/22 10:20:49;;;;;;;23.92;10.68;;;22.00;79.70;;;;;;7383552;19;20006;-70
2023/05/22 10:23:21;;;;;;;23.73;10.18;;;21.80;79.80;;;;;;7387339;19;20021;-70
2023/05/22 10:25:51;;;;;;;26.20;11.50;;;21.90;80.20;;;;;;7406592;19;20031;-70
2023/05/22 10:28:27;;;;;;;24.45;12.10;;;21.90;80.30;;;;;;7381299;19;20112;-70
2023/05/22 10:31:04;;;;;;;20.27;10.73;;;22.10;79.80;;;;;;7384223;19;20006;-71
2023/05/22 10:33:38;;;;;;;26.25;11.82;;;22.00;79.90;;;;;;7383741;19;20086;-73
2023/05/22 10:36:11;;;;;;;22.10;10.85;;;22.20;79.40;;;;;;7383850;19;20010;-72
2023/05/22 10:38:54;;;;;;;29.15;12.63;;;22.20;79.90;;;;;;7381430;19;20002;-72
2023/05/22 10:41:24;;;;;;;25.17;11.77;;;22.00;79.90;;;;;;7383706;19;20086;-72
2023/05/22 10:43:53;;;;;;;31.77;11.40;;;22.10;79.70;;;;;;7405206;19;20003;-72
2023/05/22 10:46:22;;;;;;;30.17;12.27;;;22.20;79.90;;;;;;7382250;19;19999;-72
2023/05/22 10:48:55;;;;;;;26.75;12.98;;;22.00;80.40;;;;;;7381666;19;20023;-71
2023/05/22 10:51:24;;;;;;;23.05;11.55;;;22.10;80.00;;;;;;7384593;19;20031;-71
2023/05/22 10:54:01;;;;;;;29.65;13.25;;;22.00;80.50;;;;;;7382973;19;20014;-73
2023/05/22 10:56:35;;;;;;;25.80;13.30;;;21.90;80.20;;;;;;7382480;19;20058;-72
2023/05/22 10:59:06;;;;;;;23.38;11.90;;;21.80;80.10;;;;;;7383570;19;20010;-72
2023/05/22 11:01:36;;;;;;;28.83;10.73;;;22.00;80.50;;;;;;7402295;19;20055;-72
2023/05/22 11:04:14;;;;;;;29.20;12.02;;;22.20;80.60;;;;;;7381773;19;20054;-72
2023/05/22 11:06:45;;;;;;;24.17;12.07;;;22.30;79.90;;;;;;7381897;19;20010;-71
2023/05/22 11:09:29;;;;;;;33.33;12.23;;;22.50;79.10;;;;;;7382583;19;20014;-72
2023/05/22 11:12:27;;;;;;;30.33;13.20;;;22.50;79.40;;;;;;7382623;19;20010;-72
2023/05/22 11:14:57;;;;;;;29.50;13.07;;;22.50;79.30;;;;;;7383356;19;20003;-72
2023/05/22 11:17:28;;;;;;;29.70;14.10;;;22.60;79.40;;;;;;7380480;19;20388;-72
2023/05/22 11:20:03;;;;;;;24.25;13.23;;;22.50;79.00;;;;;;7402500;19;20010;-73
2023/05/22 11:22:36;;;;;;;29.35;13.98;;;22.60;79.20;;;;;;7382437;19;20010;-72
2023/05/22 11:25:10;;;;;;;25.15;14.27;;;22.50;78.40;;;;;;7381794;19;20070;-72
2023/05/22 11:27:39;;;;;;;25.10;13.05;;;22.50;79.30;;;;;;7383118;19;20469;-73
2023/05/22 11:30:10;;;;;;;26.67;13.35;;;22.60;79.50;;;;;;7382090;19;20304;-74
2023/05/22 11:32:43;;;;;;;29.23;12.85;;;22.70;79.20;;;;;;7380612;19;20006;-73
2023/05/22 11:35:15;;;;;;;25.83;11.98;;;22.80;79.20;;;;;;7381430;19;20014;-74
2023/05/22 11:37:44;;;;;;;28.38;13.30;;;22.90;79.00;;;;;;7403922;19;20007;-74
2023/05/22 11:40:18;;;;;;;23.73;13.45;;;22.70;78.50;;;;;;7381388;19;20196;-73
2023/05/22 11:42:47;;;;;;;26.70;12.98;;;22.30;79.50;;;;;;7381680;19;20019;-74
2023/05/22 11:45:16;;;;;;;23.42;12.77;;;22.30;80.50;;;;;;7381232;19;20078;-74
2023/05/22 11:47:46;;;;;;;117.13;23.77;;;22.40;80.20;;;;;;7381069;19;20010;-73
2023/05/22 11:50:15;;;;;;;28.17;13.18;;;22.60;79.60;;;;;;7380932;19;20030;-74
2023/05/22 11:52:45;;;;;;;31.95;14.55;;;22.60;79.60;;;;;;7402331;19;20017;-73
2023/05/22 11:55:16;;;;;;;22.23;13.85;;;22.80;79.20;;;;;;7380221;19;20018;-74
2023/05/22 11:57:46;;;;;;;26.85;14.10;;;22.90;78.20;;;;;;7382254;19;20011;-73
2023/05/22 12:00:16;;;;;;;33.10;13.95;;;22.90;77.70;;;;;;7380507;19;20370;-74
2023/05/22 12:02:48;;;;;;;28.50;14.52;;;22.90;78.70;;;;;;7381036;19;20070;-73
2023/05/22 12:05:17;;;;;;;30.50;14.70;;;23.00;78.10;;;;;;7383806;19;20006;-73
2023/05/22 12:07:46;;;;;;;24.67;13.43;;;23.00;77.50;;;;;;7400677;19;20038;-70
2023/05/22 12:10:18;;;;;;;26.23;12.55;;;23.10;78.70;;;;;;7380061;19;20285;-71
2023/05/22 12:12:47;;;;;;;27.85;13.50;;;23.20;78.90;;;;;;7379942;19;20012;-73
2023/05/22 12:15:16;;;;;;;28.33;14.07;;;23.40;77.10;;;;;;7380182;19;20295;-71
2023/05/22 12:17:44;;;;;;;25.80;13.02;;;23.40;76.50;;;;;;7379849;19;20003;-71
2023/05/22 12:20:14;;;;;;;22.98;12.40;;;23.50;76.40;;;;;;7379616;19;20357;-72
2023/05/22 12:22:44;;;;;;;23.80;12.18;;;23.60;77.30;;;;;;7402860;19;20007;-74
2023/05/22 12:25:19;;;;;;;23.75;12.05;;;23.70;76.40;;;;;;7380374;19;20075;-71
2023/05/22 12:27:48;;;;;;;25.15;13.25;;;23.70;75.80;;;;;;7380219;19;20158;-71
2023/05/22 12:30:18;;;;;;;24.20;12.55;;;23.60;75.50;;;;;;7382007;19;20010;-70
2023/05/22 12:32:50;;;;;;;21.00;12.02;;;23.80;75.80;;;;;;7381469;19;20011;-72
2023/05/22 12:35:19;;;;;;;28.13;11.57;;;23.80;75.60;;;;;;7382475;19;20082;-71
2023/05/22 12:37:52;;;;;;;24.73;11.85;;;24.00;75.90;;;;;;7401398;19;20027;-72
2023/05/22 12:40:26;;;;;;;20.05;11.32;;;24.10;74.70;;;;;;7383193;19;20358;-71
2023/05/22 12:42:57;;;;;;;;;;;23.80;74.60;;;;;;7379377;19;20007;-72
2023/05/22 12:45:25;;;;;;;19.20;10.80;;;23.80;74.30;;;;;;7379947;19;19911;-71
2023/05/22 12:47:54;;;;;;;19.95;11.48;;;23.80;74.40;;;;;;7380028;19;20010;-71
2023/05/22 12:50:23;;;;;;;22.15;11.88;;;23.80;74.70;;;;;;7380887;19;20018;-72
2023/05/22 12:52:52;;;;;;;20.35;11.52;;;23.80;74.90;;;;;;7402486;19;20013;-72
2023/05/22 12:55:20;;;;;;;19.15;12.55;;;24.00;74.30;;;;;;7378678;19;20014;-71